sensor_id;sensor_type;location;lat;lon;timestamp;P1;durP1;ratioP1;P2;durP2;ratioP2
1276;SDS011;631;51.024;13.826;2022-07-25T00:01:57;119.90;;;109.27;;
1276;SDS011;631;51.024;13.826;2022-07-25T00:04:23;123.57;;;112.27;;
1276;SDS011;631;51.024;13.826;2022-07-25T00:06:49;124.37;;;113.10;;
1276;SDS011;631;51.024;13.826;2022-07-25T00:09:14;128.83;;;117.30;;
1276;SDS011;631;51.024;13.826;2022-07-25T00:11:40;133.00;;;121.30;;
1276;SDS011;631;51.024;13.826;2022-07-25T00:14:06;131.97;;;119.63;;
1276;SDS011;631;51.024;13.826;2022-07-25T00:16:31;136.77;;;124.87;;
1276;SDS011;631;51.024;13.826;2022-07-25T00:18:57;134.07;;;122.17;;
1276;SDS011;631;51.024;13.826;2022-07-25T00:21:23;134.97;;;123.10;;
1276;SDS011;631;51.024;13.826;2022-07-25T00:23:48;137.40;;;125.07;;
1276;SDS011;631;51.024;13.826;2022-07-25T00:26:14;141.47;;;128.50;;
1276;SDS011;631;51.024;13.826;2022-07-25T00:28:41;141.43;;;128.63;;
1276;SDS011;631;51.024;13.826;2022-07-25T00:31:06;141.67;;;128.77;;
1276;SDS011;631;51.024;13.826;2022-07-25T00:33:32;137.57;;;125.87;;
1276;SDS011;631;51.024;13.826;2022-07-25T00:35:58;139.63;;;127.43;;
1276;SDS011;631;51.024;13.826;2022-07-25T00:38:23;137.87;;;125.83;;
1276;SDS011;631;51.024;13.826;2022-07-25T00:40:49;145.43;;;132.30;;
1276;SDS011;631;51.024;13.826;2022-07-25T00:43:15;144.80;;;131.80;;
1276;SDS011;631;51.024;13.826;2022-07-25T00:45:40;145.80;;;132.80;;
1276;SDS011;631;51.024;13.826;2022-07-25T00:48:06;147.87;;;134.63;;
1276;SDS011;631;51.024;13.826;2022-07-25T00:50:33;145.83;;;132.77;;
1276;SDS011;631;51.024;13.826;2022-07-25T00:52:59;145.93;;;132.77;;
1276;SDS011;631;51.024;13.826;2022-07-25T00:55:24;147.80;;;134.70;;
1276;SDS011;631;51.024;13.826;2022-07-25T00:57:50;144.77;;;131.70;;
1276;SDS011;631;51.024;13.826;2022-07-25T01:00:16;142.00;;;129.50;;
1276;SDS011;631;51.024;13.826;2022-07-25T01:02:42;139.90;;;127.50;;
1276;SDS011;631;51.024;13.826;2022-07-25T01:05:08;142.47;;;129.57;;
1276;SDS011;631;51.024;13.826;2022-07-25T01:07:34;140.97;;;128.37;;
1276;SDS011;631;51.024;13.826;2022-07-25T01:10:01;140.27;;;127.87;;
1276;SDS011;631;51.024;13.826;2022-07-25T01:12:27;141.23;;;129.30;;
1276;SDS011;631;51.024;13.826;2022-07-25T01:14:52;141.47;;;129.00;;
1276;SDS011;631;51.024;13.826;2022-07-25T01:17:18;138.27;;;126.17;;
1276;SDS011;631;51.024;13.826;2022-07-25T01:19:44;141.70;;;129.33;;
1276;SDS011;631;51.024;13.826;2022-07-25T01:22:11;138.53;;;126.03;;
1276;SDS011;631;51.024;13.826;2022-07-25T01:24:37;137.20;;;125.07;;
1276;SDS011;631;51.024;13.826;2022-07-25T01:27:03;136.97;;;124.47;;
1276;SDS011;631;51.024;13.826;2022-07-25T01:29:29;135.03;;;123.37;;
1276;SDS011;631;51.024;13.826;2022-07-25T01:31:54;136.00;;;123.50;;
1276;SDS011;631;51.024;13.826;2022-07-25T01:34:20;134.77;;;122.40;;
1276;SDS011;631;51.024;13.826;2022-07-25T01:36:45;133.77;;;121.77;;
1276;SDS011;631;51.024;13.826;2022-07-25T01:39:11;128.87;;;117.23;;
1276;SDS011;631;51.024;13.826;2022-07-25T01:41:37;127.73;;;116.40;;
1276;SDS011;631;51.024;13.826;2022-07-25T01:44:02;124.40;;;113.17;;
1276;SDS011;631;51.024;13.826;2022-07-25T01:46:28;127.47;;;116.27;;
1276;SDS011;631;51.024;13.826;2022-07-25T01:48:54;126.70;;;115.47;;
1276;SDS011;631;51.024;13.826;2022-07-25T01:51:20;122.87;;;112.07;;
1276;SDS011;631;51.024;13.826;2022-07-25T01:53:46;121.10;;;110.50;;
1276;SDS011;631;51.024;13.826;2022-07-25T01:56:12;123.17;;;111.60;;
1276;SDS011;631;51.024;13.826;2022-07-25T01:58:37;118.73;;;108.70;;
1276;SDS011;631;51.024;13.826;2022-07-25T02:01:03;120.37;;;109.63;;
1276;SDS011;631;51.024;13.826;2022-07-25T02:03:28;114.30;;;104.50;;
1276;SDS011;631;51.024;13.826;2022-07-25T02:05:55;112.17;;;102.30;;
1276;SDS011;631;51.024;13.826;2022-07-25T02:08:21;111.40;;;101.50;;
1276;SDS011;631;51.024;13.826;2022-07-25T02:10:47;109.73;;;99.43;;
1276;SDS011;631;51.024;13.826;2022-07-25T02:13:13;105.00;;;95.47;;
1276;SDS011;631;51.024;13.826;2022-07-25T02:15:38;103.97;;;94.33;;
1276;SDS011;631;51.024;13.826;2022-07-25T02:18:04;99.30;;;90.60;;
1276;SDS011;631;51.024;13.826;2022-07-25T02:20:30;96.33;;;87.70;;
1276;SDS011;631;51.024;13.826;2022-07-25T02:22:55;97.97;;;89.57;;
1276;SDS011;631;51.024;13.826;2022-07-25T02:25:21;94.83;;;86.57;;
1276;SDS011;631;51.024;13.826;2022-07-25T02:27:46;91.57;;;83.50;;
1276;SDS011;631;51.024;13.826;2022-07-25T02:30:12;90.47;;;82.60;;
1276;SDS011;631;51.024;13.826;2022-07-25T02:32:38;90.23;;;82.40;;
1276;SDS011;631;51.024;13.826;2022-07-25T02:35:04;87.57;;;79.90;;
1276;SDS011;631;51.024;13.826;2022-07-25T02:37:31;85.93;;;78.33;;
1276;SDS011;631;51.024;13.826;2022-07-25T02:39:56;80.30;;;73.20;;
1276;SDS011;631;51.024;13.826;2022-07-25T02:42:22;78.17;;;71.13;;
1276;SDS011;631;51.024;13.826;2022-07-25T02:44:48;77.80;;;70.97;;
1276;SDS011;631;51.024;13.826;2022-07-25T02:47:13;74.37;;;67.17;;
1276;SDS011;631;51.024;13.826;2022-07-25T02:49:39;72.20;;;65.70;;
1276;SDS011;631;51.024;13.826;2022-07-25T02:52:05;70.57;;;64.33;;
1276;SDS011;631;51.024;13.826;2022-07-25T02:54:30;72.67;;;66.27;;
1276;SDS011;631;51.024;13.826;2022-07-25T02:56:56;70.60;;;63.73;;
1276;SDS011;631;51.024;13.826;2022-07-25T02:59:21;71.07;;;64.30;;
1276;SDS011;631;51.024;13.826;2022-07-25T03:01:47;68.83;;;62.30;;
1276;SDS011;631;51.024;13.826;2022-07-25T03:04:12;68.43;;;62.30;;
1276;SDS011;631;51.024;13.826;2022-07-25T03:06:38;65.63;;;59.80;;
1276;SDS011;631;51.024;13.826;2022-07-25T03:09:03;67.50;;;61.43;;
1276;SDS011;631;51.024;13.826;2022-07-25T03:11:29;62.90;;;57.30;;
1276;SDS011;631;51.024;13.826;2022-07-25T03:13:55;64.47;;;58.33;;
1276;SDS011;631;51.024;13.826;2022-07-25T03:16:21;61.90;;;56.47;;
1276;SDS011;631;51.024;13.826;2022-07-25T03:18:47;61.57;;;55.93;;
1276;SDS011;631;51.024;13.826;2022-07-25T03:21:13;57.87;;;52.67;;
1276;SDS011;631;51.024;13.826;2022-07-25T03:23:38;57.90;;;52.90;;
1276;SDS011;631;51.024;13.826;2022-07-25T03:26:04;55.97;;;51.13;;
1276;SDS011;631;51.024;13.826;2022-07-25T03:28:30;52.30;;;47.53;;
1276;SDS011;631;51.024;13.826;2022-07-25T03:30:55;50.33;;;45.73;;
1276;SDS011;631;51.024;13.826;2022-07-25T03:33:21;52.27;;;47.07;;
1276;SDS011;631;51.024;13.826;2022-07-25T03:35:46;49.67;;;45.30;;
1276;SDS011;631;51.024;13.826;2022-07-25T03:38:12;49.77;;;45.23;;
1276;SDS011;631;51.024;13.826;2022-07-25T03:40:38;45.57;;;41.57;;
1276;SDS011;631;51.024;13.826;2022-07-25T03:43:04;45.00;;;40.97;;
1276;SDS011;631;51.024;13.826;2022-07-25T03:45:29;43.90;;;39.90;;
1276;SDS011;631;51.024;13.826;2022-07-25T03:47:55;45.03;;;41.03;;
1276;SDS011;631;51.024;13.826;2022-07-25T03:50:20;43.40;;;39.50;;
1276;SDS011;631;51.024;13.826;2022-07-25T03:52:46;41.70;;;38.00;;
1276;SDS011;631;51.024;13.826;2022-07-25T03:55:11;38.63;;;35.33;;
1276;SDS011;631;51.024;13.826;2022-07-25T03:57:37;40.20;;;36.80;;
1276;SDS011;631;51.024;13.826;2022-07-25T04:00:04;39.30;;;36.10;;
1276;SDS011;631;51.024;13.826;2022-07-25T04:02:31;37.47;;;34.37;;
1276;SDS011;631;51.024;13.826;2022-07-25T04:04:57;40.67;;;37.10;;
1276;SDS011;631;51.024;13.826;2022-07-25T04:07:22;39.70;;;36.27;;
1276;SDS011;631;51.024;13.826;2022-07-25T04:09:48;40.27;;;36.47;;
1276;SDS011;631;51.024;13.826;2022-07-25T04:12:13;39.20;;;35.80;;
1276;SDS011;631;51.024;13.826;2022-07-25T04:14:39;41.00;;;37.47;;
1276;SDS011;631;51.024;13.826;2022-07-25T04:17:05;39.90;;;36.50;;
1276;SDS011;631;51.024;13.826;2022-07-25T04:19:30;41.47;;;37.30;;
1276;SDS011;631;51.024;13.826;2022-07-25T04:21:56;40.10;;;36.60;;
1276;SDS011;631;51.024;13.826;2022-07-25T04:24:21;41.67;;;38.00;;
1276;SDS011;631;51.024;13.826;2022-07-25T04:26:47;40.00;;;36.60;;
1276;SDS011;631;51.024;13.826;2022-07-25T04:29:13;42.10;;;38.57;;
1276;SDS011;631;51.024;13.826;2022-07-25T04:31:38;41.27;;;37.87;;
1276;SDS011;631;51.024;13.826;2022-07-25T04:34:04;42.10;;;38.40;;
1276;SDS011;631;51.024;13.826;2022-07-25T04:36:29;41.73;;;38.13;;
1276;SDS011;631;51.024;13.826;2022-07-25T04:38:55;40.30;;;36.90;;
1276;SDS011;631;51.024;13.826;2022-07-25T04:41:21;38.73;;;35.53;;
1276;SDS011;631;51.024;13.826;2022-07-25T04:43:46;38.93;;;35.47;;
1276;SDS011;631;51.024;13.826;2022-07-25T04:46:16;35.77;;;32.77;;
1276;SDS011;631;51.024;13.826;2022-07-25T04:48:42;33.63;;;30.93;;
1276;SDS011;631;51.024;13.826;2022-07-25T04:51:08;34.00;;;31.03;;
1276;SDS011;631;51.024;13.826;2022-07-25T04:53:35;32.03;;;29.40;;
1276;SDS011;631;51.024;13.826;2022-07-25T04:56:00;31.50;;;28.87;;
1276;SDS011;631;51.024;13.826;2022-07-25T04:58:26;32.50;;;29.60;;
1276;SDS011;631;51.024;13.826;2022-07-25T05:00:51;33.17;;;30.40;;
1276;SDS011;631;51.024;13.826;2022-07-25T05:03:17;31.20;;;28.37;;
1276;SDS011;631;51.024;13.826;2022-07-25T05:05:43;31.73;;;29.00;;
1276;SDS011;631;51.024;13.826;2022-07-25T05:08:08;31.40;;;28.77;;
1276;SDS011;631;51.024;13.826;2022-07-25T05:10:34;32.17;;;29.47;;
1276;SDS011;631;51.024;13.826;2022-07-25T05:12:59;32.20;;;29.40;;
1276;SDS011;631;51.024;13.826;2022-07-25T05:15:25;32.93;;;29.97;;
1276;SDS011;631;51.024;13.826;2022-07-25T05:17:50;34.10;;;31.20;;
1276;SDS011;631;51.024;13.826;2022-07-25T05:20:16;36.03;;;32.93;;
1276;SDS011;631;51.024;13.826;2022-07-25T05:22:42;37.03;;;33.87;;
1276;SDS011;631;51.024;13.826;2022-07-25T05:25:09;37.43;;;34.17;;
1276;SDS011;631;51.024;13.826;2022-07-25T05:27:36;37.93;;;34.93;;
1276;SDS011;631;51.024;13.826;2022-07-25T05:30:03;36.20;;;32.77;;
1276;SDS011;631;51.024;13.826;2022-07-25T05:32:30;36.40;;;33.20;;
1276;SDS011;631;51.024;13.826;2022-07-25T05:34:56;35.03;;;32.30;;
1276;SDS011;631;51.024;13.826;2022-07-25T05:37:21;37.13;;;33.83;;
1276;SDS011;631;51.024;13.826;2022-07-25T05:39:47;34.97;;;32.13;;
1276;SDS011;631;51.024;13.826;2022-07-25T05:42:12;36.63;;;33.43;;
1276;SDS011;631;51.024;13.826;2022-07-25T05:44:38;37.33;;;34.13;;
1276;SDS011;631;51.024;13.826;2022-07-25T05:47:07;36.17;;;33.07;;
1276;SDS011;631;51.024;13.826;2022-07-25T05:49:36;34.83;;;32.00;;
1276;SDS011;631;51.024;13.826;2022-07-25T05:52:02;35.30;;;32.60;;
1276;SDS011;631;51.024;13.826;2022-07-25T05:54:29;34.60;;;31.70;;
1276;SDS011;631;51.024;13.826;2022-07-25T05:56:54;35.60;;;32.53;;
1276;SDS011;631;51.024;13.826;2022-07-25T05:59:20;37.03;;;33.63;;
1276;SDS011;631;51.024;13.826;2022-07-25T06:01:45;33.87;;;31.07;;
1276;SDS011;631;51.024;13.826;2022-07-25T06:04:11;36.47;;;33.27;;
1276;SDS011;631;51.024;13.826;2022-07-25T06:06:37;35.97;;;33.10;;
1276;SDS011;631;51.024;13.826;2022-07-25T06:09:02;38.30;;;34.90;;
1276;SDS011;631;51.024;13.826;2022-07-25T06:11:28;37.07;;;33.77;;
1276;SDS011;631;51.024;13.826;2022-07-25T06:13:55;38.40;;;35.20;;
1276;SDS011;631;51.024;13.826;2022-07-25T06:16:21;37.10;;;34.13;;
1276;SDS011;631;51.024;13.826;2022-07-25T06:18:46;38.63;;;35.40;;
1276;SDS011;631;51.024;13.826;2022-07-25T06:21:12;38.03;;;34.93;;
1276;SDS011;631;51.024;13.826;2022-07-25T06:23:37;37.80;;;34.73;;
1276;SDS011;631;51.024;13.826;2022-07-25T06:26:03;37.77;;;34.67;;
1276;SDS011;631;51.024;13.826;2022-07-25T06:28:32;36.67;;;33.77;;
1276;SDS011;631;51.024;13.826;2022-07-25T06:30:57;36.23;;;33.23;;
1276;SDS011;631;51.024;13.826;2022-07-25T06:33:23;36.27;;;33.47;;
1276;SDS011;631;51.024;13.826;2022-07-25T06:35:49;36.60;;;33.63;;
1276;SDS011;631;51.024;13.826;2022-07-25T06:38:14;35.27;;;32.20;;
1276;SDS011;631;51.024;13.826;2022-07-25T06:40:40;33.37;;;30.50;;
1276;SDS011;631;51.024;13.826;2022-07-25T06:43:05;34.63;;;31.93;;
1276;SDS011;631;51.024;13.826;2022-07-25T06:45:31;30.40;;;28.00;;
1276;SDS011;631;51.024;13.826;2022-07-25T06:47:57;30.17;;;27.77;;
1276;SDS011;631;51.024;13.826;2022-07-25T06:50:23;28.07;;;25.93;;
1276;SDS011;631;51.024;13.826;2022-07-25T06:52:48;28.50;;;26.37;;
1276;SDS011;631;51.024;13.826;2022-07-25T06:55:14;26.10;;;23.80;;
1276;SDS011;631;51.024;13.826;2022-07-25T06:57:40;27.80;;;25.13;;
1276;SDS011;631;51.024;13.826;2022-07-25T07:00:07;25.80;;;23.90;;
1276;SDS011;631;51.024;13.826;2022-07-25T07:02:45;24.57;;;22.47;;
1276;SDS011;631;51.024;13.826;2022-07-25T07:05:12;22.77;;;20.87;;
1276;SDS011;631;51.024;13.826;2022-07-25T07:07:37;21.47;;;19.67;;
1276;SDS011;631;51.024;13.826;2022-07-25T07:10:03;21.43;;;19.83;;
1276;SDS011;631;51.024;13.826;2022-07-25T07:12:29;18.80;;;17.40;;
1276;SDS011;631;51.024;13.826;2022-07-25T07:14:54;18.00;;;16.70;;
1276;SDS011;631;51.024;13.826;2022-07-25T07:17:20;17.83;;;16.27;;
1276;SDS011;631;51.024;13.826;2022-07-25T07:19:45;16.13;;;14.93;;
1276;SDS011;631;51.024;13.826;2022-07-25T07:22:11;16.70;;;15.30;;
1276;SDS011;631;51.024;13.826;2022-07-25T07:24:37;14.73;;;13.63;;
1276;SDS011;631;51.024;13.826;2022-07-25T07:27:02;15.17;;;13.97;;
1276;SDS011;631;51.024;13.826;2022-07-25T07:29:28;15.03;;;13.93;;
1276;SDS011;631;51.024;13.826;2022-07-25T07:31:53;14.70;;;13.50;;
1276;SDS011;631;51.024;13.826;2022-07-25T07:34:19;15.07;;;13.60;;
1276;SDS011;631;51.024;13.826;2022-07-25T07:36:45;14.77;;;13.70;;
1276;SDS011;631;51.024;13.826;2022-07-25T07:39:11;14.47;;;13.37;;
1276;SDS011;631;51.024;13.826;2022-07-25T07:41:36;13.60;;;12.60;;
1276;SDS011;631;51.024;13.826;2022-07-25T07:44:02;12.17;;;11.37;;
1276;SDS011;631;51.024;13.826;2022-07-25T07:46:29;12.53;;;11.63;;
1276;SDS011;631;51.024;13.826;2022-07-25T07:48:54;12.17;;;11.27;;
1276;SDS011;631;51.024;13.826;2022-07-25T07:51:20;12.33;;;11.33;;
1276;SDS011;631;51.024;13.826;2022-07-25T07:53:45;11.77;;;10.90;;
1276;SDS011;631;51.024;13.826;2022-07-25T07:56:30;12.20;;;11.40;;
1276;SDS011;631;51.024;13.826;2022-07-25T07:58:55;11.57;;;10.87;;
1276;SDS011;631;51.024;13.826;2022-07-25T08:01:21;11.63;;;10.83;;
1276;SDS011;631;51.024;13.826;2022-07-25T08:03:46;11.23;;;10.53;;
1276;SDS011;631;51.024;13.826;2022-07-25T08:06:12;12.33;;;11.50;;
1276;SDS011;631;51.024;13.826;2022-07-25T08:08:37;12.30;;;11.40;;
1276;SDS011;631;51.024;13.826;2022-07-25T08:11:03;12.27;;;11.17;;
1276;SDS011;631;51.024;13.826;2022-07-25T08:13:29;11.93;;;11.10;;
1276;SDS011;631;51.024;13.826;2022-07-25T08:15:56;12.40;;;11.50;;
1276;SDS011;631;51.024;13.826;2022-07-25T08:18:24;12.53;;;11.77;;
1276;SDS011;631;51.024;13.826;2022-07-25T08:20:51;13.30;;;12.40;;
1276;SDS011;631;51.024;13.826;2022-07-25T08:23:17;11.63;;;10.83;;
1276;SDS011;631;51.024;13.826;2022-07-25T08:25:43;11.10;;;10.30;;
1276;SDS011;631;51.024;13.826;2022-07-25T08:28:11;11.10;;;10.20;;
1276;SDS011;631;51.024;13.826;2022-07-25T08:30:37;12.37;;;11.47;;
1276;SDS011;631;51.024;13.826;2022-07-25T08:33:05;11.63;;;10.83;;
1276;SDS011;631;51.024;13.826;2022-07-25T08:35:34;12.70;;;11.90;;
1276;SDS011;631;51.024;13.826;2022-07-25T08:38:00;12.67;;;11.87;;
1276;SDS011;631;51.024;13.826;2022-07-25T08:40:27;12.30;;;11.47;;
1276;SDS011;631;51.024;13.826;2022-07-25T08:42:54;11.50;;;10.70;;
1276;SDS011;631;51.024;13.826;2022-07-25T08:45:20;11.93;;;11.20;;
1276;SDS011;631;51.024;13.826;2022-07-25T08:47:48;11.73;;;11.00;;
1276;SDS011;631;51.024;13.826;2022-07-25T08:50:16;11.53;;;10.60;;
1276;SDS011;631;51.024;13.826;2022-07-25T08:52:43;11.80;;;11.00;;
1276;SDS011;631;51.024;13.826;2022-07-25T08:55:12;12.13;;;11.20;;
1276;SDS011;631;51.024;13.826;2022-07-25T08:57:40;12.33;;;11.53;;
1276;SDS011;631;51.024;13.826;2022-07-25T09:00:10;11.67;;;10.77;;
1276;SDS011;631;51.024;13.826;2022-07-25T09:02:37;11.87;;;11.07;;
1276;SDS011;631;51.024;13.826;2022-07-25T09:05:03;13.17;;;12.20;;
1276;SDS011;631;51.024;13.826;2022-07-25T09:07:31;13.27;;;12.27;;
1276;SDS011;631;51.024;13.826;2022-07-25T09:12:56;12.30;;;11.27;;
1276;SDS011;631;51.024;13.826;2022-07-25T09:15:23;12.50;;;11.53;;
1276;SDS011;631;51.024;13.826;2022-07-25T09:17:52;12.67;;;11.67;;
1276;SDS011;631;51.024;13.826;2022-07-25T09:20:18;13.37;;;12.47;;
1276;SDS011;631;51.024;13.826;2022-07-25T09:22:45;12.77;;;11.90;;
1276;SDS011;631;51.024;13.826;2022-07-25T09:25:25;12.17;;;11.27;;
1276;SDS011;631;51.024;13.826;2022-07-25T09:28:11;12.43;;;11.43;;
1276;SDS011;631;51.024;13.826;2022-07-25T09:30:38;11.73;;;11.03;;
1276;SDS011;631;51.024;13.826;2022-07-25T09:33:05;12.70;;;11.93;;
1276;SDS011;631;51.024;13.826;2022-07-25T09:35:31;12.80;;;11.87;;
1276;SDS011;631;51.024;13.826;2022-07-25T09:38:05;11.63;;;10.93;;
1276;SDS011;631;51.024;13.826;2022-07-25T09:40:39;12.20;;;11.40;;
1276;SDS011;631;51.024;13.826;2022-07-25T09:43:05;12.30;;;11.50;;
1276;SDS011;631;51.024;13.826;2022-07-25T09:45:31;13.27;;;12.37;;
1276;SDS011;631;51.024;13.826;2022-07-25T09:47:58;11.43;;;10.80;;
1276;SDS011;631;51.024;13.826;2022-07-25T09:50:26;12.07;;;11.37;;
1276;SDS011;631;51.024;13.826;2022-07-25T09:52:54;12.43;;;11.57;;
1276;SDS011;631;51.024;13.826;2022-07-25T09:55:21;13.40;;;12.50;;
1276;SDS011;631;51.024;13.826;2022-07-25T09:57:48;12.90;;;12.10;;
1276;SDS011;631;51.024;13.826;2022-07-25T10:00:20;12.80;;;12.00;;
1276;SDS011;631;51.024;13.826;2022-07-25T10:05:53;12.60;;;11.80;;
1276;SDS011;631;51.024;13.826;2022-07-25T10:08:28;12.40;;;11.60;;
1276;SDS011;631;51.024;13.826;2022-07-25T10:10:59;12.00;;;11.10;;
1276;SDS011;631;51.024;13.826;2022-07-25T10:13:30;12.70;;;11.70;;
1276;SDS011;631;51.024;13.826;2022-07-25T10:15:58;12.03;;;11.33;;
1276;SDS011;631;51.024;13.826;2022-07-25T10:18:26;11.40;;;10.70;;
1276;SDS011;631;51.024;13.826;2022-07-25T10:21:07;12.30;;;11.50;;
1276;SDS011;631;51.024;13.826;2022-07-25T10:23:34;12.80;;;12.00;;
1276;SDS011;631;51.024;13.826;2022-07-25T10:26:01;12.10;;;11.40;;
1276;SDS011;631;51.024;13.826;2022-07-25T10:28:34;12.60;;;11.90;;
1276;SDS011;631;51.024;13.826;2022-07-25T10:31:13;12.80;;;11.80;;
1276;SDS011;631;51.024;13.826;2022-07-25T10:33:40;11.73;;;11.03;;
1276;SDS011;631;51.024;13.826;2022-07-25T10:36:06;10.87;;;10.17;;
1276;SDS011;631;51.024;13.826;2022-07-25T10:38:37;12.00;;;11.20;;
1276;SDS011;631;51.024;13.826;2022-07-25T10:41:05;13.37;;;12.47;;
1276;SDS011;631;51.024;13.826;2022-07-25T10:43:36;12.40;;;11.70;;
1276;SDS011;631;51.024;13.826;2022-07-25T10:46:09;12.50;;;11.70;;
1276;SDS011;631;51.024;13.826;2022-07-25T10:48:39;11.50;;;10.80;;
1276;SDS011;631;51.024;13.826;2022-07-25T10:51:07;12.00;;;11.30;;
1276;SDS011;631;51.024;13.826;2022-07-25T10:53:37;12.80;;;12.10;;
1276;SDS011;631;51.024;13.826;2022-07-25T10:56:15;13.00;;;12.20;;
1276;SDS011;631;51.024;13.826;2022-07-25T11:01:19;12.33;;;11.53;;
1276;SDS011;631;51.024;13.826;2022-07-25T11:03:50;11.83;;;11.13;;
1276;SDS011;631;51.024;13.826;2022-07-25T11:06:27;12.40;;;11.60;;
1276;SDS011;631;51.024;13.826;2022-07-25T11:08:56;12.23;;;11.40;;
1276;SDS011;631;51.024;13.826;2022-07-25T11:11:57;11.87;;;11.17;;
1276;SDS011;631;51.024;13.826;2022-07-25T11:16:48;12.10;;;11.40;;
1276;SDS011;631;51.024;13.826;2022-07-25T11:19:27;11.93;;;11.07;;
1276;SDS011;631;51.024;13.826;2022-07-25T11:21:54;11.70;;;10.90;;
1276;SDS011;631;51.024;13.826;2022-07-25T11:24:32;12.50;;;11.70;;
1276;SDS011;631;51.024;13.826;2022-07-25T11:27:02;12.00;;;11.20;;
1276;SDS011;631;51.024;13.826;2022-07-25T11:29:28;12.37;;;11.47;;
1276;SDS011;631;51.024;13.826;2022-07-25T11:31:58;12.57;;;11.77;;
1276;SDS011;631;51.024;13.826;2022-07-25T11:34:30;12.30;;;11.43;;
1276;SDS011;631;51.024;13.826;2022-07-25T11:37:00;12.20;;;11.40;;
1276;SDS011;631;51.024;13.826;2022-07-25T11:39:29;11.87;;;11.17;;
1276;SDS011;631;51.024;13.826;2022-07-25T11:41:57;12.20;;;11.17;;
1276;SDS011;631;51.024;13.826;2022-07-25T11:44:38;12.20;;;11.50;;
1276;SDS011;631;51.024;13.826;2022-07-25T11:47:05;12.50;;;11.50;;
1276;SDS011;631;51.024;13.826;2022-07-25T11:49:45;11.57;;;10.77;;
1276;SDS011;631;51.024;13.826;2022-07-25T11:52:22;11.73;;;11.00;;
1276;SDS011;631;51.024;13.826;2022-07-25T11:55:04;12.23;;;11.43;;
1276;SDS011;631;51.024;13.826;2022-07-25T11:57:33;11.90;;;11.10;;
1276;SDS011;631;51.024;13.826;2022-07-25T12:00:01;12.73;;;11.93;;
1276;SDS011;631;51.024;13.826;2022-07-25T12:02:31;11.67;;;10.87;;
1276;SDS011;631;51.024;13.826;2022-07-25T12:05:00;12.47;;;11.63;;
1276;SDS011;631;51.024;13.826;2022-07-25T12:07:37;13.17;;;12.10;;
1276;SDS011;631;51.024;13.826;2022-07-25T12:10:05;12.30;;;11.60;;
1276;SDS011;631;51.024;13.826;2022-07-25T12:12:42;11.77;;;11.03;;
1276;SDS011;631;51.024;13.826;2022-07-25T12:15:11;12.17;;;11.37;;
1276;SDS011;631;51.024;13.826;2022-07-25T12:17:40;12.40;;;11.50;;
1276;SDS011;631;51.024;13.826;2022-07-25T12:20:18;11.17;;;10.37;;
1276;SDS011;631;51.024;13.826;2022-07-25T12:22:49;12.00;;;11.20;;
1276;SDS011;631;51.024;13.826;2022-07-25T12:25:16;11.80;;;11.00;;
1276;SDS011;631;51.024;13.826;2022-07-25T12:27:42;11.93;;;11.23;;
1276;SDS011;631;51.024;13.826;2022-07-25T12:30:08;12.43;;;11.63;;
1276;SDS011;631;51.024;13.826;2022-07-25T12:32:35;11.33;;;10.70;;
1276;SDS011;631;51.024;13.826;2022-07-25T12:35:02;12.60;;;11.60;;
1276;SDS011;631;51.024;13.826;2022-07-25T12:37:29;11.23;;;10.50;;
1276;SDS011;631;51.024;13.826;2022-07-25T12:39:54;11.70;;;10.80;;
1276;SDS011;631;51.024;13.826;2022-07-25T12:42:21;11.70;;;10.90;;
1276;SDS011;631;51.024;13.826;2022-07-25T12:44:47;13.10;;;12.30;;
1276;SDS011;631;51.024;13.826;2022-07-25T12:47:13;12.00;;;11.30;;
1276;SDS011;631;51.024;13.826;2022-07-25T12:49:38;11.40;;;10.70;;
1276;SDS011;631;51.024;13.826;2022-07-25T12:52:04;12.20;;;11.40;;
1276;SDS011;631;51.024;13.826;2022-07-25T12:54:30;11.40;;;10.70;;
1276;SDS011;631;51.024;13.826;2022-07-25T12:56:55;12.13;;;11.27;;
1276;SDS011;631;51.024;13.826;2022-07-25T12:59:21;11.97;;;11.20;;
1276;SDS011;631;51.024;13.826;2022-07-25T13:01:47;12.20;;;11.50;;
1276;SDS011;631;51.024;13.826;2022-07-25T13:04:13;12.17;;;11.17;;
1276;SDS011;631;51.024;13.826;2022-07-25T13:06:38;11.63;;;10.93;;
1276;SDS011;631;51.024;13.826;2022-07-25T13:09:04;12.20;;;11.37;;
1276;SDS011;631;51.024;13.826;2022-07-25T13:11:30;12.23;;;11.43;;
1276;SDS011;631;51.024;13.826;2022-07-25T13:13:56;12.10;;;11.40;;
1276;SDS011;631;51.024;13.826;2022-07-25T13:16:22;11.07;;;10.47;;
1276;SDS011;631;51.024;13.826;2022-07-25T13:18:48;11.70;;;10.90;;
1276;SDS011;631;51.024;13.826;2022-07-25T13:21:13;11.33;;;10.63;;
1276;SDS011;631;51.024;13.826;2022-07-25T13:23:39;12.43;;;11.50;;
1276;SDS011;631;51.024;13.826;2022-07-25T13:26:05;12.23;;;11.47;;
1276;SDS011;631;51.024;13.826;2022-07-25T13:28:31;11.77;;;11.07;;
1276;SDS011;631;51.024;13.826;2022-07-25T13:30:57;11.53;;;10.90;;
1276;SDS011;631;51.024;13.826;2022-07-25T13:33:25;12.30;;;11.57;;
1276;SDS011;631;51.024;13.826;2022-07-25T13:35:51;12.40;;;11.40;;
1276;SDS011;631;51.024;13.826;2022-07-25T13:38:17;11.83;;;11.03;;
1276;SDS011;631;51.024;13.826;2022-07-25T13:40:43;13.30;;;12.40;;
1276;SDS011;631;51.024;13.826;2022-07-25T13:43:12;12.97;;;12.33;;
1276;SDS011;631;51.024;13.826;2022-07-25T13:45:39;12.53;;;11.83;;
1276;SDS011;631;51.024;13.826;2022-07-25T13:48:06;12.40;;;11.70;;
1276;SDS011;631;51.024;13.826;2022-07-25T13:50:32;12.10;;;11.40;;
1276;SDS011;631;51.024;13.826;2022-07-25T13:52:58;12.60;;;11.90;;
1276;SDS011;631;51.024;13.826;2022-07-25T13:55:29;13.70;;;12.70;;
1276;SDS011;631;51.024;13.826;2022-07-25T13:57:55;12.13;;;11.53;;
1276;SDS011;631;51.024;13.826;2022-07-25T14:00:21;12.67;;;11.80;;
1276;SDS011;631;51.024;13.826;2022-07-25T14:02:47;12.13;;;11.43;;
1276;SDS011;631;51.024;13.826;2022-07-25T14:05:12;11.50;;;10.90;;
1276;SDS011;631;51.024;13.826;2022-07-25T14:07:39;12.43;;;11.63;;
1276;SDS011;631;51.024;13.826;2022-07-25T14:10:05;12.00;;;11.40;;
1276;SDS011;631;51.024;13.826;2022-07-25T14:12:33;11.27;;;10.67;;
1276;SDS011;631;51.024;13.826;2022-07-25T14:14:59;12.53;;;11.83;;
1276;SDS011;631;51.024;13.826;2022-07-25T14:17:26;11.60;;;11.10;;
1276;SDS011;631;51.024;13.826;2022-07-25T14:19:52;11.67;;;11.10;;
1276;SDS011;631;51.024;13.826;2022-07-25T14:22:17;11.63;;;11.03;;
1276;SDS011;631;51.024;13.826;2022-07-25T14:24:43;12.37;;;11.67;;
1276;SDS011;631;51.024;13.826;2022-07-25T14:27:09;12.33;;;11.73;;
1276;SDS011;631;51.024;13.826;2022-07-25T14:29:35;12.70;;;11.90;;
1276;SDS011;631;51.024;13.826;2022-07-25T14:32:02;12.57;;;11.97;;
1276;SDS011;631;51.024;13.826;2022-07-25T14:34:29;11.60;;;11.00;;
1276;SDS011;631;51.024;13.826;2022-07-25T14:36:54;11.27;;;10.67;;
1276;SDS011;631;51.024;13.826;2022-07-25T14:39:20;11.43;;;10.90;;
1276;SDS011;631;51.024;13.826;2022-07-25T14:41:45;12.17;;;11.37;;
1276;SDS011;631;51.024;13.826;2022-07-25T14:44:11;12.20;;;11.40;;
1276;SDS011;631;51.024;13.826;2022-07-25T14:46:37;11.40;;;10.80;;
1276;SDS011;631;51.024;13.826;2022-07-25T14:49:04;11.73;;;11.13;;
1276;SDS011;631;51.024;13.826;2022-07-25T14:51:30;12.20;;;11.50;;
1276;SDS011;631;51.024;13.826;2022-07-25T14:53:56;11.50;;;11.00;;